Tokyo International Airport
RJTT : now visible

Airfield :











YOU CAN JOIN US ON...

 
LOGIN :

Register | Disclaimer

   EN    FR    IT 

 









Legend :    VFR   Marginal VFR   IFR   Intensive IFR   Very Intensive IFR
Visi :
Ceiling :
>= 8 km
>= 3000ft
5 to 8 km
1000 to 3000 ft
1500m to 5 km
500 to 1000 ft
800 to 1500m
200 to 500 ft
< 800m
< 200 ft
Symbols :   Thunderstorms  Fog  Heavy snow  Heavy precipitations  Wind > 20 kt






- Airport Elevation : 35 ft
- IATA code : HND


RJTT - Tokyo International

CURRENT METAR :
  • 222330Z 35023G33KT 3000 R34L/P2000N R22/2000N R34R/P2000N R05/P2000N -RA BR FEW003 BKN006 BKN010 12/11 Q1027 NOSIG RMK 1ST003 6ST006 7ST010 A3034

EXPIRED METARs :
  • 222300Z 35023KT 3500 -RA BR FEW003 BKN008 BKN010 12/11 Q1027 TEMPO 35024G34KT RMK 1ST003 5ST008 7ST010 A3035
  • 222241Z 36022G32KT 3500 -RA BR FEW003 SCT006 BKN008 11/11 Q1027 RMK 1ST003 4ST006 6ST008 A3035
  • 222230Z 36021KT 3500 -RA BR FEW003 SCT006 BKN008 11/11 Q1027 TEMPO 35024G34KT RMK 1ST003 3ST006 5ST008 A3034
  • 222200Z 35026KT 4000 -RA BR FEW005 BKN008 BKN010 11/11 Q1027 TEMPO 35024G34KT
  • 222148Z 35025KT 6000 -RA FEW005 BKN008 BKN010 11/10 Q1027 WS R34L RMK 1ST005 5ST008 7ST010 A3034
  • 222130Z 35024G34KT 4000 -RA BR FEW005 SCT007 BKN010 11/11 Q1027 TEMPO FEW005 BKN008 RMK 1ST005 4ST007 7ST010 A3034
  • 222100Z 35024KT 5000 -RA BR FEW005 SCT007 BKN010 11/11 Q1027 TEMPO FEW005 BKN008

TAF TAF RJTT
Valid from the 23 at 00:00 until the 24 at 06:00 UTC


222305Z 2300/2406 34016KT 6000 -RA FEW008 BKN012
TEMPO 2300/2301 35024G34KT 3000 -RA BR FEW005 BKN008
TEMPO 2301/2304 4000 -RA BR FEW005 BKN008
BECMG 2312/2315 4000 -RA BR FEW005 BKN008
TEMPO 2318/2400 3000 RA BR
BECMG 2400/2403 6000 NSW FEW008 BKN012



MET'MAP, your aeronautical weather chart ! - Copyright ORBIFLY December 2007 - Disclaimer

ORBIFLY MET'MAP TEAM :

Programming & Development : Alexandra Zaïnal
Concept & Development : Baudouin d'Aumeries
Co-Development & Prog : Marc-Olivier Méhu
Technical & hardware support : Manuel Goepfert

Contact : metmap@orbifly.com




SOURCES & CREDITS :

   NOAA       Earth
Advisory